Create Tblcommutelog Verified Points Advance Search
| # | Trip ID | Id Commuter | Trip Date | Trip Num | Current Lat | Current Lng | Delta Distance | Current Time | Activity | Activity Confidence | Current Speed | |
|---|---|---|---|---|---|---|---|---|---|---|---|---|
| 70981 | 250312_780223_16451365_1432 | 780223 | (not set) | (not set) | 38.933350163692 | -77.090888688177 | 1.2925 | 2025-03-12 18:39:40.411 | in_vehicle | 100 | 4.1842874641251 | |
| 70982 | 250312_780223_16451365_1432 | 780223 | (not set) | (not set) | 38.932814279366 | -77.092607885906 | 1.3922 | 2025-03-12 18:39:53.478 | in_vehicle | 100 | 6.1736121666205 | |
| 70983 | 250312_780223_16451365_1432 | 780223 | (not set) | (not set) | 38.932409768081 | -77.094982408479 | 1.5232 | 2025-03-12 18:40:10.407 | in_vehicle | 100 | 5.4717605300097 | |
| 70984 | 250312_780223_16451365_1432 | 780223 | (not set) | (not set) | 38.932511195225 | -77.096762085106 | 1.6194 | 2025-03-12 18:40:25.418 | in_vehicle | 100 | 3.0666893166558 | |
| 70985 | 250312_780223_16451365_1432 | 780223 | (not set) | (not set) | 38.932865316862 | -77.097922474061 | 1.6865 | 2025-03-12 18:40:43.468 | in_vehicle | 100 | 5.4762309225996 | |
| 70986 | 250312_780223_16451365_1432 | 780223 | (not set) | (not set) | 38.933613549046 | -77.099496706578 | 1.7858 | 2025-03-12 18:40:55.427 | in_vehicle | 100 | 6.3121943369067 | |
| 70987 | 250312_780223_16451365_1432 | 780223 | (not set) | (not set) | 38.935137468187 | -77.100942111862 | 1.9166 | 2025-03-12 18:41:11.528 | in_vehicle | 100 | 5.2169481523867 | |
| 70988 | 250312_780223_16451365_1432 | 780223 | (not set) | (not set) | 38.935714356762 | -77.102626386601 | 2.0157 | 2025-03-12 18:41:30.433 | in_vehicle | 100 | 5.3421191449033 | |
| 70989 | 250312_780223_16451365_1432 | 780223 | (not set) | (not set) | 38.935769171861 | -77.104425813735 | 2.1127 | 2025-03-12 18:41:45.417 | in_vehicle | 100 | 4.3631031677202 | |
| 70990 | 250312_780223_16451365_1432 | 780223 | (not set) | (not set) | 38.935759446332 | -77.106172496428 | 2.2068 | 2025-03-12 18:41:58.518 | in_vehicle | 100 | 5.1141291228196 | |
| 70991 | 250312_780223_16451365_1432 | 780223 | (not set) | (not set) | 38.93576449198 | -77.107974611615 | 2.3039 | 2025-03-12 18:42:10.403 | in_vehicle | 100 | 6.3345462998561 | |
| 70992 | 250312_780223_16451365_1432 | 780223 | (not set) | (not set) | 38.9357860948 | -77.110303871547 | 2.4294 | 2025-03-12 18:42:26.432 | in_vehicle | 100 | 5.2482409005159 | |
| 70993 | 250312_780223_16451365_1432 | 780223 | (not set) | (not set) | 38.936353344629 | -77.111911601086 | 2.5244 | 2025-03-12 18:42:44.412 | in_vehicle | 100 | 6.5357139664005 | |
| 70994 | 250312_780223_16451365_1432 | 780223 | (not set) | (not set) | 38.938019819124 | -77.111841504344 | 2.6395 | 2025-03-12 18:42:56.458 | in_vehicle | 100 | 6.8933453735907 | |
| 70995 | 250312_780223_16451365_1432 | 780223 | (not set) | (not set) | 38.938157721935 | -77.111854472457 | 2.649 | 2025-03-12 18:42:57.167 | in_vehicle | 100 | 6.8039375217932 | |
| 70996 | 250312_780223_16451365_1432 | 780223 | (not set) | (not set) | 38.939922976387 | -77.112437075128 | 2.7747 | 2025-03-12 18:43:15.504 | in_vehicle | 100 | 4.8906094933257 | |
| 70997 | 250312_780223_16451365_1432 | 780223 | (not set) | (not set) | 38.941278237424 | -77.112687911881 | 2.8692 | 2025-03-12 18:43:33.402 | in_vehicle | 100 | 2.7358802650049 | |
| 70998 | 250312_780223_16451365_1432 | 780223 | (not set) | (not set) | 38.941962770495 | -77.113516526754 | 2.9342 | 2025-03-12 18:43:44.402 | in_vehicle | 100 | 4.4525110195177 | |
| 70999 | 250312_780223_16451365_1432 | 780223 | (not set) | (not set) | 38.942914383035 | -77.114883407485 | 3.0328 | 2025-03-12 18:43:59.458 | in_vehicle | 100 | 5.1320106931791 | |
| 71000 | 250312_780223_16451365_1432 | 780223 | (not set) | (not set) | 38.943846946748 | -77.116195303618 | 3.1284 | 2025-03-12 18:44:25.462 | in_vehicle | 100 | 3.8177152717552 |